Time;durP1;ratioP1;P1;durP2;ratioP2;P2;SDS_P1;SDS_P2;PMS_P1;PMS_P2;Temp;Humidity;BMP_temperature;BMP_pressure;BME280_temperature;BME280_humidity;BME280_pressure;Samples;Min_cycle;Max_cycle;Signal;HPM_P1;HPM_P2
2023/12/01 00:01:53;;;;;;;26.33;21.67;;;;;;;2.67;100.00;92385.41;5025044;28;20207;-78
2023/12/01 00:04:19;;;;;;;29.80;23.70;;;;;;;2.96;100.00;92387.63;5025815;28;20286;-77
2023/12/01 00:06:44;;;;;;;40.53;24.13;;;;;;;2.67;100.00;92399.09;5017290;28;20205;-78
2023/12/01 00:09:10;;;;;;;29.63;22.63;;;;;;;2.90;100.00;92404.03;5028994;28;20214;-78
2023/12/01 00:11:35;;;;;;;38.50;26.53;;;;;;;3.01;100.00;92395.44;5026215;28;20170;-76
2023/12/01 00:14:00;;;;;;;32.83;24.27;;;;;;;3.20;100.00;92388.97;5025916;28;20241;-78
2023/12/01 00:16:26;;;;;;;30.70;22.17;;;;;;;3.25;100.00;92386.44;5026508;28;20180;-78
2023/12/01 00:18:52;;;;;;;31.53;23.53;;;;;;;3.23;100.00;92367.09;5017366;28;20357;-77
2023/12/01 00:21:17;;;;;;;38.40;25.13;;;;;;;2.94;100.00;92358.72;5029576;28;20203;-78
2023/12/01 00:23:43;;;;;;;28.87;23.43;;;;;;;3.19;100.00;92384.81;5029280;28;20236;-78
2023/12/01 00:26:09;;;;;;;26.73;22.30;;;;;;;3.09;100.00;92365.88;5017279;28;20898;-77
2023/12/01 00:28:35;;;;;;;25.40;20.70;;;;;;;2.97;100.00;92394.34;5026664;28;20234;-77
2023/12/01 00:31:01;;;;;;;30.17;23.27;;;;;;;3.10;100.00;92388.06;5024814;28;20829;-78
2023/12/01 00:33:26;;;;;;;32.70;24.40;;;;;;;2.98;100.00;92374.50;5029381;28;20183;-77
2023/12/01 00:35:52;;;;;;;37.67;21.97;;;;;;;2.90;100.00;92362.00;5019538;28;20180;-78
2023/12/01 00:38:17;;;;;;;25.07;21.03;;;;;;;3.19;100.00;92335.06;5026972;28;20214;-77
2023/12/01 00:40:43;;;;;;;23.77;19.70;;;;;;;3.29;100.00;92371.28;5029177;28;20202;-78
2023/12/01 00:43:09;;;;;;;24.93;20.50;;;;;;;3.31;100.00;92356.34;5028096;28;20222;-77
2023/12/01 00:45:35;;;;;;;30.50;22.37;;;;;;;3.07;100.00;92373.06;5029509;28;20242;-75
2023/12/01 00:48:00;;;;;;;26.30;22.33;;;;;;;3.48;100.00;92376.91;5022803;28;20210;-77
2023/12/01 00:50:26;;;;;;;27.73;22.50;;;;;;;3.36;100.00;92358.22;5055038;28;20218;-76
2023/12/01 00:52:51;;;;;;;28.33;22.27;;;;;;;2.75;100.00;92409.00;5055202;28;20270;-77
2023/12/01 00:55:17;;;;;;;33.10;23.90;;;;;;;3.03;100.00;92357.31;5029212;28;20210;-76
2023/12/01 00:57:42;;;;;;;30.63;23.07;;;;;;;2.86;100.00;92395.22;5028770;28;20186;-77
2023/12/01 01:00:08;;;;;;;29.57;23.97;;;;;;;3.16;100.00;92381.94;5018787;28;20239;-77
2023/12/01 01:02:34;;;;;;;32.53;23.37;;;;;;;3.00;100.00;92387.94;5011491;28;20218;-78
2023/12/01 01:04:59;;;;;;;30.07;20.87;;;;;;;3.16;100.00;92345.84;5020922;28;20238;-77
2023/12/01 01:07:25;;;;;;;22.87;19.57;;;;;;;3.03;100.00;92387.47;5024448;28;20187;-78
2023/12/01 01:09:50;;;;;;;20.93;18.73;;;;;;;3.35;100.00;92365.16;5029086;28;20217;-77
2023/12/01 01:12:16;;;;;;;20.80;17.40;;;;;;;3.43;100.00;92367.31;5023476;28;20190;-78
2023/12/01 01:14:41;;;;;;;17.20;15.27;;;;;;;3.57;100.00;92327.22;5028444;28;20250;-78
2023/12/01 01:17:06;;;;;;;16.20;14.80;;;;;;;3.52;100.00;92347.03;5029849;28;20206;-80
2023/12/01 01:19:32;;;;;;;21.20;17.97;;;;;;;3.29;100.00;92322.28;5020353;28;20227;-80
2023/12/01 01:21:57;;;;;;;18.57;15.33;;;;;;;3.73;100.00;92341.84;5026916;28;20233;-80
2023/12/01 01:24:23;;;;;;;16.97;15.37;;;;;;;3.60;100.00;92362.06;5027297;28;20301;-79
2023/12/01 01:26:48;;;;;;;16.73;15.03;;;;;;;3.74;100.00;92322.75;5027936;28;20183;-79
2023/12/01 01:29:13;;;;;;;16.20;14.80;;;;;;;3.77;100.00;92367.91;5028717;28;20234;-78
2023/12/01 01:31:39;;;;;;;15.93;14.23;;;;;;;3.75;100.00;92308.78;5026152;28;20254;-80
2023/12/01 01:34:04;;;;;;;16.10;14.73;;;;;;;3.67;100.00;92360.88;5019891;28;20231;-79
2023/12/01 01:36:29;;;;;;;17.63;15.73;;;;;;;3.91;100.00;92356.19;5028155;28;20186;-78
2023/12/01 01:38:55;;;;;;;17.93;16.07;;;;;;;4.14;100.00;92348.16;5022995;28;20265;-79
2023/12/01 01:41:21;;;;;;;17.37;15.47;;;;;;;4.03;100.00;92329.19;5028339;28;20647;-78
2023/12/01 01:43:46;;;;;;;20.00;15.87;;;;;;;3.99;100.00;92361.72;5026428;28;20239;-79
2023/12/01 01:46:12;;;;;;;16.77;15.50;;;;;;;4.29;100.00;92310.31;5028192;28;20183;-79
2023/12/01 01:48:38;;;;;;;17.37;15.57;;;;;;;4.09;100.00;92320.47;5027933;28;20300;-78
2023/12/01 01:51:09;;;;;;;16.57;15.13;;;;;;;4.18;100.00;92341.47;5029031;28;20187;-78
2023/12/01 01:53:37;;;;;;;17.53;15.90;;;;;;;4.56;100.00;92334.25;5027666;28;20345;-79
2023/12/01 01:56:04;;;;;;;16.67;15.17;;;;;;;4.44;100.00;92338.03;5027463;28;20191;-78
2023/12/01 01:58:29;;;;;;;15.93;14.47;;;;;;;4.43;100.00;92329.53;5028656;28;20182;-77
2023/12/01 02:00:55;;;;;;;18.60;14.87;;;;;;;4.66;100.00;92339.50;5028601;28;20219;-78
2023/12/01 02:03:21;;;;;;;17.33;15.77;;;;;;;4.87;100.00;92327.47;5028606;28;20182;-77
2023/12/01 02:05:49;;;;;;;16.90;15.40;;;;;;;4.08;100.00;92293.06;5026461;28;20171;-78
2023/12/01 02:08:21;;;;;;;16.83;15.23;;;;;;;4.71;100.00;92349.09;5020810;28;20190;-78
2023/12/01 02:10:47;;;;;;;15.33;14.03;;;;;;;4.68;100.00;92328.91;5032686;28;20183;-78
2023/12/01 02:13:14;;;;;;;16.23;14.90;;;;;;;4.44;100.00;92338.81;5029825;28;20740;-77
2023/12/01 02:15:40;;;;;;;15.47;13.97;;;;;;;4.88;100.00;92329.81;5032636;28;20255;-79
2023/12/01 02:18:24;;;;;;;14.43;13.43;;;;;;;4.62;100.00;92307.41;5028412;28;20227;-79
2023/12/01 02:20:51;;;;;;;14.03;12.97;;;;;;;4.59;100.00;92340.75;5028433;28;20278;-81
2023/12/01 02:23:16;;;;;;;14.20;13.10;;;;;;;4.64;100.00;92327.84;5026948;28;20176;-83
2023/12/01 02:25:42;;;;;;;13.97;12.97;;;;;;;4.46;100.00;92308.34;5020205;28;20198;-83
2023/12/01 02:28:07;;;;;;;13.67;12.57;;;;;;;4.36;100.00;92315.25;5024605;28;20191;-82
2023/12/01 02:30:32;;;;;;;13.03;12.00;;;;;;;4.60;100.00;92313.88;5031240;28;20230;-83
2023/12/01 02:32:58;;;;;;;13.77;12.77;;;;;;;4.40;100.00;92337.78;5032026;28;20203;-84
2023/12/01 02:35:29;;;;;;;15.43;14.03;;;;;;;4.71;100.00;92316.28;5030939;28;20270;-84
2023/12/01 02:37:58;;;;;;;14.60;11.87;;;;;;;4.61;100.00;92333.50;5031384;28;20202;-83
2023/12/01 02:40:24;;;;;;;13.63;12.60;;;;;;;4.46;100.00;92316.09;5030716;28;20218;-83
2023/12/01 02:42:51;;;;;;;14.43;13.43;;;;;;;4.58;100.00;92349.50;5032102;28;20210;-84
2023/12/01 02:45:18;;;;;;;12.43;11.53;;;;;;;4.77;100.00;92328.19;5031037;28;20225;-82
2023/12/01 02:47:45;;;;;;;13.23;11.93;;;;;;;4.76;100.00;92325.84;5032246;28;20201;-83
2023/12/01 02:50:12;;;;;;;14.93;13.63;;;;;;;4.76;100.00;92336.97;5030852;28;20271;-82
2023/12/01 02:52:38;;;;;;;13.13;12.03;;;;;;;4.73;100.00;92316.78;5024383;28;20207;-83
2023/12/01 02:55:04;;;;;;;13.57;12.47;;;;;;;4.88;100.00;92316.09;5030889;28;20254;-83
2023/12/01 02:57:29;;;;;;;13.77;12.50;;;;;;;4.68;100.00;92316.78;5031196;28;20185;-83
2023/12/01 02:59:54;;;;;;;11.73;10.97;;;;;;;4.88;100.00;92337.56;5029700;28;20679;-84
2023/12/01 03:02:21;;;;;;;15.47;13.97;;;;;;;5.14;100.00;92322.94;5019518;28;20222;-83
2023/12/01 03:04:46;;;;;;;13.17;11.90;;;;;;;4.75;100.00;92322.47;5016799;28;20254;-83
2023/12/01 03:07:12;;;;;;;12.87;11.97;;;;;;;4.57;100.00;92332.47;5024667;28;20191;-83
2023/12/01 03:09:37;;;;;;;12.83;11.97;;;;;;;4.55;100.00;92324.94;5022595;28;20234;-84
2023/12/01 03:12:04;;;;;;;12.83;11.87;;;;;;;4.79;100.00;92331.28;5031850;28;20208;-83
2023/12/01 03:14:29;;;;;;;12.83;11.80;;;;;;;4.79;100.00;92317.59;5017988;28;20291;-83
2023/12/01 03:16:56;;;;;;;12.50;11.50;;;;;;;4.79;100.00;92344.22;5031752;28;20202;-83
2023/12/01 03:19:22;;;;;;;13.33;12.20;;;;;;;4.80;100.00;92334.66;5022105;28;20281;-83
2023/12/01 03:21:47;;;;;;;13.80;12.60;;;;;;;4.85;100.00;92306.25;5015544;28;20232;-83
2023/12/01 03:24:13;;;;;;;13.87;12.87;;;;;;;4.54;100.00;92332.94;5025118;28;20234;-83
2023/12/01 03:26:38;;;;;;;13.67;12.67;;;;;;;4.86;100.00;92346.59;5019238;28;20221;-83
2023/12/01 03:29:04;;;;;;;14.07;13.07;;;;;;;5.24;100.00;92340.31;5026478;28;20234;-83
2023/12/01 03:31:29;;;;;;;14.07;13.07;;;;;;;5.46;100.00;92333.94;5029741;28;20189;-82
2023/12/01 03:33:55;;;;;;;13.93;12.83;;;;;;;5.56;100.00;92317.66;5021414;28;20214;-83
2023/12/01 03:36:21;;;;;;;12.97;12.07;;;;;;;5.44;100.00;92322.28;5026586;28;20194;-81
2023/12/01 03:38:47;;;;;;;14.60;13.40;;;;;;;5.54;100.00;92335.25;5015185;28;20315;-83
2023/12/01 03:41:12;;;;;;;13.87;12.87;;;;;;;5.60;100.00;92316.13;5016342;28;20215;-86
2023/12/01 03:43:38;;;;;;;15.33;12.30;;;;;;;5.59;100.00;92330.09;5030487;28;20243;-84
2023/12/01 03:46:03;;;;;;;16.30;12.23;;;;;;;5.79;100.00;92324.97;5030935;28;20183;-83
2023/12/01 03:48:30;;;;;;;15.03;13.50;;;;;;;5.73;100.00;92321.59;5047960;28;20195;-83
2023/12/01 03:50:55;;;;;;;14.63;13.23;;;;;;;5.98;100.00;92318.28;5030548;28;20250;-83
2023/12/01 03:53:21;;;;;;;14.93;13.43;;;;;;;5.92;100.00;92347.81;5025949;28;20198;-82
2023/12/01 03:55:46;;;;;;;13.80;12.63;;;;;;;5.96;100.00;92313.34;5029588;28;20251;-82
2023/12/01 03:58:11;;;;;;;13.50;12.30;;;;;;;5.77;100.00;92351.13;5028341;28;20198;-79
2023/12/01 04:00:37;;;;;;;14.00;12.70;;;;;;;6.10;100.00;92334.38;5026681;28;20198;-81
2023/12/01 04:03:02;;;;;;;13.67;12.60;;;;;;;5.68;100.00;92325.97;5028026;28;20252;-80
2023/12/01 04:05:28;;;;;;;12.13;11.13;;;;;;;5.65;100.00;92329.09;5025821;28;20275;-81
2023/12/01 04:07:53;;;;;;;17.13;12.70;;;;;;;5.92;100.00;92306.38;5027983;28;20230;-80
2023/12/01 04:10:19;;;;;;;12.80;11.63;;;;;;;5.98;100.00;92328.66;5027295;28;20676;-80
2023/12/01 04:12:45;;;;;;;11.60;10.90;;;;;;;5.99;100.00;92345.75;5025638;28;20190;-80
2023/12/01 04:15:15;;;;;;;14.37;12.83;;;;;;;5.83;100.00;92306.09;5027021;28;20219;-81
2023/12/01 04:17:45;;;;;;;31.17;21.00;;;;;;;5.89;100.00;92363.88;5027134;28;20183;-83
2023/12/01 04:20:22;;;;;;;15.07;13.67;;;;;;;6.22;100.00;92303.81;5028787;28;20222;-82
2023/12/01 04:22:55;;;;;;;13.73;12.47;;;;;;;6.05;100.00;92332.56;5024722;28;20221;-83
2023/12/01 04:25:21;;;;;;;13.13;12.43;;;;;;;6.26;100.00;92304.81;5017079;28;20227;-79
2023/12/01 04:27:47;;;;;;;16.53;14.50;;;;;;;6.12;100.00;92308.97;5028000;28;20357;-79
2023/12/01 04:30:16;;;;;;;13.07;12.07;;;;;;;6.27;100.00;92321.94;5029250;28;20215;-79
2023/12/01 04:32:47;;;;;;;13.53;12.43;;;;;;;6.65;100.00;92334.38;5028637;28;20214;-81
2023/12/01 04:35:12;;;;;;;13.03;12.13;;;;;;;6.82;100.00;92305.56;5027984;28;20238;-81
2023/12/01 04:37:42;;;;;;;13.17;12.27;;;;;;;6.52;100.00;92342.69;5029867;28;20179;-79
2023/12/01 04:40:14;;;;;;;14.23;13.23;;;;;;;6.54;100.00;92297.31;5027410;28;20235;-81
2023/12/01 04:42:41;;;;;;;14.20;12.93;;;;;;;6.63;100.00;92314.94;5021525;28;20261;-81
2023/12/01 04:45:11;;;;;;;13.07;12.17;;;;;;;6.57;100.00;92333.09;5029176;28;20226;-83
2023/12/01 04:47:37;;;;;;;12.87;11.87;;;;;;;6.84;100.00;92317.22;5023742;28;20202;-82
2023/12/01 04:50:03;;;;;;;12.60;11.80;;;;;;;6.74;100.00;92343.16;5020113;28;20224;-81
2023/12/01 04:52:29;;;;;;;12.63;11.70;;;;;;;6.82;100.00;92324.50;5022996;28;20175;-83
2023/12/01 04:54:55;;;;;;;13.73;12.57;;;;;;;6.64;100.00;92295.72;5026847;28;20226;-84
2023/12/01 04:57:20;;;;;;;13.03;11.83;;;;;;;6.71;100.00;92333.31;5022917;28;20251;-82
2023/12/01 04:59:46;;;;;;;14.40;13.20;;;;;;;6.69;100.00;92291.31;5047134;28;20245;-80
2023/12/01 05:02:11;;;;;;;13.43;12.03;;;;;;;6.50;100.00;92319.63;5026434;28;20221;-80
2023/12/01 05:04:36;;;;;;;13.50;12.13;;;;;;;6.53;100.00;92285.38;5029176;28;20243;-81
2023/12/01 05:07:02;;;;;;;13.73;12.73;;;;;;;6.52;100.00;92333.09;5019032;28;20187;-80
2023/12/01 05:09:27;;;;;;;13.23;12.13;;;;;;;6.67;100.00;92303.78;5028914;28;20219;-82
2023/12/01 05:11:52;;;;;;;12.60;11.63;;;;;;;6.53;100.00;92305.34;5028574;28;20203;-82
2023/12/01 05:14:18;;;;;;;14.30;13.13;;;;;;;6.75;100.00;92308.44;5025458;28;20226;-83
2023/12/01 05:16:43;;;;;;;13.60;12.53;;;;;;;6.64;100.00;92286.16;5025005;28;20945;-83
2023/12/01 05:19:10;;;;;;;14.87;13.77;;;;;;;6.52;100.00;92333.09;5028552;28;20239;-80
2023/12/01 05:21:36;;;;;;;13.63;12.43;;;;;;;6.51;100.00;92320.38;5018072;28;20209;-80
2023/12/01 05:24:01;;;;;;;11.87;11.10;;;;;;;6.66;100.00;92327.38;5028458;28;20230;-83
2023/12/01 05:26:28;;;;;;;13.47;12.43;;;;;;;6.72;100.00;92334.09;5044659;28;20176;-80
2023/12/01 05:28:55;;;;;;;13.07;12.07;;;;;;;6.68;100.00;92320.13;5025359;28;20223;-86
2023/12/01 05:31:20;;;;;;;13.40;12.53;;;;;;;6.45;100.00;92319.63;5018446;28;20195;-89
2023/12/01 05:33:46;;;;;;;12.43;11.53;;;;;;;6.56;100.00;92328.16;5026795;28;20238;-86
2023/12/01 05:36:15;;;;;;;12.87;11.97;;;;;;;6.74;100.00;92311.28;5028255;28;20234;-87
2023/12/01 05:38:40;;;;;;;13.47;12.47;;;;;;;6.50;100.00;92311.06;5023826;28;20298;-85
2023/12/01 05:41:09;;;;;;;12.47;11.33;;;;;;;6.72;100.00;92308.97;5018955;28;20223;-84
2023/12/01 05:43:34;;;;;;;13.97;12.83;;;;;;;6.51;100.00;92344.50;5027345;28;20776;-88
2023/12/01 05:46:00;;;;;;;13.63;12.50;;;;;;;6.57;100.00;92319.34;5031475;28;20183;-88
2023/12/01 05:48:25;;;;;;;12.97;12.03;;;;;;;6.17;100.00;92334.88;5021665;28;20178;-86
2023/12/01 05:50:51;;;;;;;12.63;11.73;;;;;;;6.42;100.00;92333.09;5029305;28;20215;-85
2023/12/01 05:53:17;;;;;;;26.20;16.17;;;;;;;6.29;100.00;92340.59;5035957;28;20190;-84
2023/12/01 05:55:42;;;;;;;13.90;12.57;;;;;;;6.24;100.00;92325.81;5034782;28;20543;-83
2023/12/01 05:58:10;;;;;;;13.33;12.33;;;;;;;6.27;100.00;92327.13;5031110;28;20193;-85
2023/12/01 06:00:36;;;;;;;14.63;13.43;;;;;;;5.94;100.00;92312.06;5044763;28;20273;-87
2023/12/01 06:03:06;;;;;;;15.37;12.07;;;;;;;6.22;100.00;92298.63;5037436;28;20197;-84
2023/12/01 06:05:32;;;;;;;11.50;10.63;;;;;;;6.05;100.00;92345.53;5029348;28;20218;-86
2023/12/01 06:07:59;;;;;;;12.23;11.23;;;;;;;6.30;100.00;92329.97;5027980;28;20333;-87
2023/12/01 06:10:29;;;;;;;12.43;11.53;;;;;;;6.11;100.00;92328.94;5034875;28;20262;-86
2023/12/01 06:12:55;;;;;;;12.10;11.03;;;;;;;6.32;100.00;92298.59;5062918;28;20215;-88
2023/12/01 06:15:21;;;;;;;13.53;12.47;;;;;;;6.26;100.00;92321.16;5043207;28;20224;-86
2023/12/01 06:17:48;;;;;;;12.00;10.90;;;;;;;6.72;100.00;92308.97;5021502;28;20184;-84
2023/12/01 06:20:18;;;;;;;13.57;12.60;;;;;;;6.85;100.00;92329.16;5022939;28;20211;-88
2023/12/01 06:22:54;;;;;;;12.17;11.37;;;;;;;7.18;100.00;92307.78;5025414;28;20228;-80
2023/12/01 06:25:26;;;;;;;14.27;11.67;;;;;;;7.05;100.00;92336.88;5021335;28;20249;-85
2023/12/01 06:27:52;;;;;;;14.37;13.00;;;;;;;7.08;100.00;92325.97;5024422;28;20254;-82
2023/12/01 06:30:17;;;;;;;13.83;12.30;;;;;;;6.93;100.00;92326.03;5029159;28;20219;-85
2023/12/01 06:32:44;;;;;;;12.83;12.03;;;;;;;7.12;100.00;92324.44;5025038;28;20191;-77
2023/12/01 06:35:14;;;;;;;15.57;14.07;;;;;;;6.94;100.00;92327.56;5025919;28;20215;-79
2023/12/01 06:37:41;;;;;;;17.27;15.47;;;;;;;6.98;100.00;92344.19;5025606;28;20283;-79
2023/12/01 06:40:11;;;;;;;16.90;15.10;;;;;;;7.19;100.00;92331.94;5030621;28;20245;-79
2023/12/01 06:42:46;;;;;;;18.43;16.47;;;;;;;7.25;100.00;92339.47;5024899;28;20210;-78
2023/12/01 06:45:16;;;;;;;14.80;13.27;;;;;;;7.51;100.00;92333.13;5024239;28;20245;-79
2023/12/01 06:47:46;;;;;;;14.60;13.50;;;;;;;7.46;100.00;92340.94;5025384;28;20183;-77
2023/12/01 06:50:16;;;;;;;15.90;14.03;;;;;;;7.50;100.00;92331.56;5055740;28;20219;-78
2023/12/01 06:52:43;;;;;;;15.53;13.07;;;;;;;7.51;100.00;92319.34;5030907;28;20179;-81
2023/12/01 06:55:09;;;;;;;14.30;12.73;;;;;;;7.71;100.00;92329.66;5014793;28;20219;-79
2023/12/01 06:57:42;;;;;;;13.23;12.33;;;;;;;7.83;100.00;92324.91;5023370;28;20190;-79
2023/12/01 07:00:09;;;;;;;16.37;13.87;;;;;;;7.68;99.94;92337.97;5016024;28;20211;-83
2023/12/01 07:02:38;;;;;;;16.80;13.97;;;;;;;7.89;100.00;92340.19;5053599;28;20218;-79
2023/12/01 07:05:05;;;;;;;17.33;15.87;;;;;;;7.68;99.62;92332.78;5026424;28;20239;-78
2023/12/01 07:07:31;;;;;;;17.97;14.27;;;;;;;8.06;99.17;92348.41;5023440;28;20205;-79
2023/12/01 07:09:58;;;;;;;14.53;13.33;;;;;;;7.84;100.00;92376.59;5023184;28;20289;-86
2023/12/01 07:12:23;;;;;;;15.67;14.33;;;;;;;8.22;99.19;92349.09;5027466;28;20644;-79
2023/12/01 07:14:48;;;;;;;32.83;29.43;;;;;;;7.87;100.00;92364.91;5024829;28;20246;-86
2023/12/01 07:17:14;;;;;;;18.27;16.63;;;;;;;8.37;98.98;92363.88;5017937;28;20191;-76
2023/12/01 07:19:40;;;;;;;14.47;13.07;;;;;;;8.26;98.88;92360.56;5017650;28;20227;-83
2023/12/01 07:22:05;;;;;;;12.40;11.50;;;;;;;8.30;98.43;92329.56;5023492;28;20199;-82
2023/12/01 07:24:31;;;;;;;12.73;11.70;;;;;;;8.13;97.72;92351.50;5029262;28;20221;-79
2023/12/01 07:26:56;;;;;;;12.73;11.93;;;;;;;8.43;97.68;92323.78;5028826;28;20673;-76
2023/12/01 07:29:21;;;;;;;15.40;12.47;;;;;;;8.16;98.84;92339.78;5026832;28;20236;-77
2023/12/01 07:31:47;;;;;;;13.50;12.40;;;;;;;8.13;98.83;92332.53;5027656;28;20216;-79
2023/12/01 07:34:12;;;;;;;12.93;11.80;;;;;;;8.48;97.33;92319.31;5032522;28;20235;-79
2023/12/01 07:36:39;;;;;;;15.97;12.27;;;;;;;8.38;98.18;92305.59;5028331;28;20194;-77
2023/12/01 07:39:04;;;;;;;15.83;11.93;;;;;;;8.59;97.28;92336.38;5028461;28;20266;-78
2023/12/01 07:41:31;;;;;;;14.20;12.90;;;;;;;8.62;95.59;92249.22;5027058;28;20754;-85
2023/12/01 07:43:57;;;;;;;15.10;13.63;;;;;;;8.75;96.58;92343.00;5026193;28;20282;-78
2023/12/01 07:46:22;;;;;;;16.20;14.73;;;;;;;8.98;96.10;92344.13;5030897;28;20198;-75
2023/12/01 07:48:48;;;;;;;15.67;13.87;;;;;;;8.91;95.37;92341.06;5021573;28;20466;-81
2023/12/01 07:51:16;;;;;;;15.10;13.83;;;;;;;8.82;98.17;92338.28;5031736;28;20182;-85
2023/12/01 07:53:44;;;;;;;15.23;13.70;;;;;;;9.14;94.50;92340.31;5030699;28;20242;-83
2023/12/01 07:56:10;;;;;;;13.30;12.03;;;;;;;9.20;94.75;92360.03;5025029;28;20222;-81
2023/12/01 07:58:35;;;;;;;14.43;12.60;;;;;;;9.78;89.71;92387.56;5023480;28;20242;-82
2023/12/01 08:01:01;;;;;;;14.20;12.87;;;;;;;9.69;90.34;92339.72;5030086;28;20217;-78
2023/12/01 08:03:26;;;;;;;14.70;13.17;;;;;;;9.49;92.68;92352.97;5029885;28;20182;-79
2023/12/01 08:05:52;;;;;;;17.57;14.23;;;;;;;9.18;93.80;92352.50;5025045;28;20194;-79
2023/12/01 08:08:17;;;;;;;15.23;13.57;;;;;;;9.23;94.17;92341.28;5027641;28;20295;-79
2023/12/01 08:10:42;;;;;;;15.53;14.13;;;;;;;9.72;91.52;92360.00;5029643;28;20202;-78
2023/12/01 08:13:08;;;;;;;14.03;12.70;;;;;;;9.25;94.38;92357.38;5027174;28;20195;-77
2023/12/01 08:15:33;;;;;;;14.03;12.83;;;;;;;9.09;95.39;92366.41;5039914;28;20249;-80
2023/12/01 08:18:00;;;;;;;13.93;12.83;;;;;;;9.17;95.77;92363.97;5030015;28;20219;-80
2023/12/01 08:20:28;;;;;;;14.83;13.63;;;;;;;9.31;95.54;92358.88;5028317;28;20249;-81
2023/12/01 08:22:54;;;;;;;13.17;12.23;;;;;;;9.67;95.05;92344.41;5020977;28;20212;-82
2023/12/01 08:25:21;;;;;;;13.37;12.07;;;;;;;9.68;93.75;92372.03;5020788;28;20273;-84
2023/12/01 08:27:47;;;;;;;19.83;14.57;;;;;;;9.31;94.54;92356.28;5028072;28;20218;-83
2023/12/01 08:30:12;;;;;;;16.53;15.00;;;;;;;9.58;92.99;92403.41;5032116;28;20226;-83
2023/12/01 08:32:38;;;;;;;15.27;13.73;;;;;;;9.68;92.57;92377.25;5033579;28;20218;-83
2023/12/01 08:35:04;;;;;;;15.87;14.57;;;;;;;9.06;94.50;92414.59;5031879;28;20227;-82
2023/12/01 08:37:30;;;;;;;15.40;13.87;;;;;;;9.16;94.31;92385.88;5027760;28;20206;-80
2023/12/01 08:39:55;;;;;;;16.03;14.60;;;;;;;9.35;94.23;92396.38;5027459;28;20218;-80
2023/12/01 08:42:20;;;;;;;15.77;14.27;;;;;;;9.41;94.10;92382.22;5029339;28;20248;-80
2023/12/01 08:44:46;;;;;;;16.80;15.20;;;;;;;9.53;94.05;92387.84;5027552;28;20235;-78
2023/12/01 08:47:13;;;;;;;15.40;14.00;;;;;;;9.95;92.45;92385.25;5017838;28;20199;-80
2023/12/01 08:49:39;;;;;;;14.50;13.20;;;;;;;9.87;93.43;92364.25;5028530;28;20226;-80
2023/12/01 08:52:06;;;;;;;16.47;14.87;;;;;;;10.03;92.02;92382.03;5028905;28;20246;-79
2023/12/01 08:54:31;;;;;;;17.90;16.20;;;;;;;10.37;90.90;92351.34;5018849;28;20214;-80
2023/12/01 08:56:58;;;;;;;16.17;14.77;;;;;;;10.43;89.88;92368.47;5024037;28;20187;-80
2023/12/01 08:59:24;;;;;;;16.77;15.10;;;;;;;10.17;91.52;92353.44;5033555;28;20217;-80
2023/12/01 09:01:49;;;;;;;15.67;14.23;;;;;;;10.35;92.06;92363.88;5028664;28;20267;-79
2023/12/01 09:04:15;;;;;;;18.53;16.03;;;;;;;10.38;90.09;92337.22;5028712;28;20294;-80
2023/12/01 09:06:40;;;;;;;17.43;15.70;;;;;;;9.99;92.27;92321.09;5029165;28;20194;-81
2023/12/01 09:09:06;;;;;;;13.97;12.77;;;;;;;10.31;90.86;92297.69;5028618;28;20322;-79
2023/12/01 09:11:31;;;;;;;13.27;11.93;;;;;;;10.69;89.53;92308.84;5031488;28;20237;-78
2023/12/01 09:13:56;;;;;;;13.53;12.63;;;;;;;10.88;88.08;92339.06;5032894;28;20240;-80
2023/12/01 09:16:23;;;;;;;13.00;11.87;;;;;;;11.20;86.70;92335.66;5024724;28;20179;-82
2023/12/01 09:18:50;;;;;;;13.33;12.17;;;;;;;11.49;84.60;92332.78;5023701;28;20230;-81
2023/12/01 09:21:15;;;;;;;13.37;12.20;;;;;;;11.52;86.81;92342.66;5026650;28;20210;-78
2023/12/01 09:23:41;;;;;;;12.53;11.63;;;;;;;11.37;85.55;92335.88;5028691;28;20249;-84
2023/12/01 09:26:07;;;;;;;12.87;11.77;;;;;;;11.61;84.36;92309.53;5028969;28;20225;-84
2023/12/01 09:28:35;;;;;;;19.93;16.80;;;;;;;11.45;84.65;92342.25;5026828;28;20221;-86
2023/12/01 09:31:02;;;;;;;20.23;17.67;;;;;;;11.64;84.69;92332.50;5031387;28;20293;-78
2023/12/01 09:33:27;;;;;;;16.10;14.47;;;;;;;10.92;86.81;92366.16;5020116;28;20191;-78
2023/12/01 09:35:52;;;;;;;13.80;12.70;;;;;;;11.15;88.90;92367.09;5031153;28;20195;-82
2023/12/01 09:38:18;;;;;;;14.70;13.53;;;;;;;11.25;87.44;92396.41;5030295;28;20194;-78
2023/12/01 09:40:43;;;;;;;16.30;13.00;;;;;;;11.41;86.56;92354.34;5032267;28;20196;-82
2023/12/01 09:43:12;;;;;;;14.57;13.37;;;;;;;10.78;88.44;92394.06;5028875;28;20193;-84
2023/12/01 09:45:37;;;;;;;14.20;12.90;;;;;;;11.06;87.96;92382.66;5052188;28;21018;-83
2023/12/01 09:48:06;;;;;;;13.90;12.63;;;;;;;10.68;89.23;92380.38;5026606;28;20187;-83
2023/12/01 09:50:31;;;;;;;13.67;12.60;;;;;;;10.93;88.86;92393.81;5026691;28;20225;-84
2023/12/01 09:52:57;;;;;;;13.70;12.53;;;;;;;11.07;88.35;92372.97;5027520;28;20223;-82
2023/12/01 09:55:22;;;;;;;12.83;11.83;;;;;;;11.10;88.18;92375.78;5030398;28;20234;-81
2023/12/01 09:57:48;;;;;;;24.97;22.47;;;;;;;11.54;86.09;92371.88;5028435;28;20200;-81
2023/12/01 10:03:35;;;;;;;15.10;13.73;;;;;;;11.97;84.83;92365.34;5028124;28;20233;-84
2023/12/01 10:06:00;;;;;;;18.93;17.03;;;;;;;12.08;84.80;92366.66;5031154;28;20192;-83
2023/12/01 10:08:29;;;;;;;19.00;17.20;;;;;;;12.18;84.27;92371.69;5020268;28;20213;-82
2023/12/01 10:10:54;;;;;;;17.50;13.03;;;;;;;12.38;82.61;92351.09;5027775;28;20206;-85
2023/12/01 10:13:20;;;;;;;14.77;13.57;;;;;;;12.41;82.71;92354.97;5024431;28;20236;-84
2023/12/01 10:15:47;;;;;;;16.03;14.63;;;;;;;12.54;82.45;92377.72;5031639;28;20209;-83
2023/12/01 10:18:19;;;;;;;14.73;13.50;;;;;;;12.73;80.65;92350.28;5020176;28;20311;-82
2023/12/01 10:21:07;;;;;;;12.13;11.33;;;;;;;13.00;79.28;92341.56;5028991;28;20189;-83
2023/12/01 10:23:33;;;;;;;15.50;13.83;;;;;;;13.14;78.74;92329.16;5019008;28;20231;-82
2023/12/01 10:26:00;;;;;;;11.93;11.23;;;;;;;13.00;80.30;92327.69;5021457;28;20188;-80
2023/12/01 10:28:39;;;;;;;13.00;11.80;;;;;;;13.15;79.70;92338.59;5026800;28;20192;-82
2023/12/01 10:31:05;;;;;;;11.13;10.43;;;;;;;13.34;77.88;92322.66;5030577;28;20185;-83
2023/12/01 10:33:31;;;;;;;12.83;11.53;;;;;;;13.48;77.50;92326.72;5017632;28;20268;-78
2023/12/01 10:36:03;;;;;;;12.97;12.07;;;;;;;13.58;77.32;92336.16;5030289;28;20200;-80
2023/12/01 10:38:30;;;;;;;12.13;11.30;;;;;;;13.92;75.98;92316.06;5030621;28;20185;-83
2023/12/01 10:40:56;;;;;;;11.87;11.13;;;;;;;13.93;74.45;92333.34;5030304;28;20187;-80
2023/12/01 10:43:22;;;;;;;12.30;11.37;;;;;;;14.11;74.29;92303.44;5013731;28;20187;-82
2023/12/01 10:45:50;;;;;;;11.63;10.73;;;;;;;14.35;72.82;92327.44;5031187;28;20193;-82
2023/12/01 10:48:20;;;;;;;11.27;10.47;;;;;;;14.29;73.45;92294.53;5030556;28;20187;-80
2023/12/01 10:50:47;;;;;;;11.17;10.40;;;;;;;14.48;72.79;92308.13;5030944;28;20205;-81
2023/12/01 10:53:15;;;;;;;13.10;12.20;;;;;;;14.31;73.63;92281.88;5023198;28;20222;-76
2023/12/01 10:55:47;;;;;;;11.40;10.70;;;;;;;14.54;72.36;92305.38;5030271;28;20187;-81
2023/12/01 10:58:21;;;;;;;12.23;11.23;;;;;;;14.85;73.04;92311.22;5021336;28;20266;-81
2023/12/01 11:00:49;;;;;;;12.07;11.10;;;;;;;14.81;74.12;92308.44;5025324;28;20187;-82
2023/12/01 11:03:18;;;;;;;12.23;11.37;;;;;;;14.95;71.98;92331.91;5028929;28;20179;-82
2023/12/01 11:05:44;;;;;;;13.03;11.83;;;;;;;15.01;70.46;92338.53;5025994;28;20222;-78
2023/12/01 11:08:21;;;;;;;12.80;11.90;;;;;;;14.77;72.12;92330.38;5029933;28;20183;-81
2023/12/01 11:11:11;;;;;;;12.93;12.03;;;;;;;14.84;72.88;92325.41;5024773;28;20291;-79
2023/12/01 11:14:14;;;;;;;14.57;11.60;;;;;;;15.15;70.56;92337.28;5031783;28;20234;-79
2023/12/01 11:16:40;;;;;;;13.17;11.97;;;;;;;15.15;70.56;92324.16;5023219;28;20201;-79
2023/12/01 11:19:11;;;;;;;12.83;11.83;;;;;;;15.25;71.63;92307.28;5019199;28;20365;-80
2023/12/01 11:21:41;;;;;;;12.70;11.50;;;;;;;15.29;70.84;92308.16;5024028;28;20203;-81